createdAt,value
2019-06-07T00:00:38.868Z,17.87
2019-06-07T00:02:53.320Z,17.85
2019-06-07T00:05:22.802Z,17.84
2019-06-07T00:07:52.290Z,17.86
2019-06-07T00:10:36.215Z,17.91
2019-06-07T00:12:52.993Z,17.91
2019-06-07T00:15:28.773Z,17.88
2019-06-07T00:17:53.686Z,17.87
2019-06-07T00:20:23.804Z,17.83
2019-06-07T00:22:53.596Z,17.81
2019-06-07T00:25:24.550Z,17.78
2019-06-07T00:27:54.292Z,17.73
2019-06-07T00:30:50.818Z,17.69
2019-06-07T00:32:56.155Z,17.66
2019-06-07T00:35:25.569Z,17.66
2019-06-07T00:37:54.974Z,17.60
2019-06-07T00:40:31.402Z,17.58
2019-06-07T00:42:55.653Z,17.55
2019-06-07T00:45:25.065Z,17.54
2019-06-07T00:47:54.536Z,17.56
2019-06-07T00:50:24.520Z,17.53
2019-06-07T00:55:27.727Z,17.50
2019-06-07T00:57:56.843Z,17.49
2019-06-07T01:00:26.286Z,17.51
2019-06-07T01:02:55.829Z,17.50
2019-06-07T01:05:31.157Z,17.48
2019-06-07T01:07:56.723Z,17.48
2019-06-07T01:10:51.604Z,17.46
2019-06-07T01:12:57.715Z,17.49
2019-06-07T01:15:29.037Z,17.44
2019-06-07T01:20:29.890Z,17.36
2019-06-07T01:22:59.571Z,17.36
2019-06-07T01:25:29.277Z,17.34
2019-06-07T01:27:58.747Z,17.30
2019-06-07T01:30:29.276Z,17.30
2019-06-07T01:32:59.678Z,17.32
2019-06-07T01:35:29.808Z,17.34
2019-06-07T01:37:59.841Z,17.32
2019-06-07T01:40:32.572Z,17.33
2019-06-07T01:43:00.858Z,17.29
2019-06-07T01:45:31.188Z,17.32
2019-06-07T01:48:00.816Z,17.33
2019-06-07T01:50:31.705Z,17.33
2019-06-07T01:53:01.307Z,17.34
2019-06-07T01:55:32.793Z,17.33
2019-06-07T01:58:01.858Z,17.30
2019-06-07T02:00:32.681Z,17.30
2019-06-07T02:03:02.460Z,17.26
2019-06-07T02:05:32.429Z,17.24
2019-06-07T02:08:02.140Z,17.20
2019-06-07T02:10:33.613Z,17.19
2019-06-07T02:13:02.767Z,17.15
2019-06-07T02:15:36.568Z,17.15
2019-06-07T02:18:03.412Z,17.18
2019-06-07T02:20:34.532Z,17.15
2019-06-07T02:23:04.045Z,17.09
2019-06-07T02:25:42.837Z,17.12
2019-06-07T02:28:26.508Z,17.10
2019-06-07T02:30:44.862Z,17.07
2019-06-07T02:33:07.022Z,17.06
2019-06-07T02:35:40.172Z,17.08
2019-06-07T02:38:07.764Z,17.11
2019-06-07T02:40:37.708Z,17.05
2019-06-07T02:43:07.481Z,17.04
2019-06-07T02:45:43.117Z,17.05
2019-06-07T02:48:08.194Z,17.00
2019-06-07T02:50:38.773Z,16.98
2019-06-07T02:53:08.376Z,17.01
2019-06-07T02:56:33.286Z,16.96
2019-06-07T02:58:09.157Z,16.97
2019-06-07T03:01:08.897Z,16.95
2019-06-07T03:03:22.286Z,16.91
2019-06-07T03:05:52.131Z,16.92
2019-06-07T03:08:21.615Z,16.90
2019-06-07T03:10:51.446Z,16.89
2019-06-07T03:13:22.022Z,16.91
2019-06-07T03:15:56.050Z,16.93
2019-06-07T03:18:43.259Z,16.94
2019-06-07T03:21:15.582Z,16.97
2019-06-07T03:23:45.647Z,16.96
2019-06-07T03:26:15.118Z,16.99
2019-06-07T03:28:44.706Z,17.00
2019-06-07T03:31:14.185Z,16.95
2019-06-07T03:33:45.513Z,16.94
2019-06-07T03:36:23.818Z,17.00
2019-06-07T03:38:46.008Z,16.98
2019-06-07T03:41:15.479Z,16.97
2019-06-07T03:43:44.985Z,16.97
2019-06-07T03:46:14.459Z,16.92
2019-06-07T03:48:43.930Z,16.94
2019-06-07T03:51:24.898Z,16.88
2019-06-07T03:53:44.547Z,16.85
2019-06-07T03:56:14.628Z,16.83
2019-06-07T03:58:49.694Z,16.84
2019-06-07T04:01:15.986Z,16.85
2019-06-07T04:03:51.311Z,16.90
2019-06-07T04:06:16.624Z,16.95
2019-06-07T04:08:46.090Z,16.98
2019-06-07T04:11:15.494Z,17.00
2019-06-07T04:13:44.998Z,17.03
2019-06-07T04:16:14.470Z,17.07
2019-06-07T04:18:43.948Z,17.10
2019-06-07T04:21:13.439Z,17.16
2019-06-07T04:23:45.633Z,17.22
2019-06-07T04:26:14.129Z,17.27
2019-06-07T04:31:14.773Z,17.39
2019-06-07T04:33:44.271Z,17.43
2019-06-07T04:36:46.962Z,17.50
2019-06-07T04:39:06.137Z,17.55
2019-06-07T04:41:37.256Z,17.63
2019-06-07T04:44:06.714Z,17.69
2019-06-07T04:46:39.859Z,17.71
2019-06-07T04:49:07.343Z,17.75
2019-06-07T04:51:40.590Z,17.81
2019-06-07T04:54:08.150Z,17.85
2019-06-07T04:56:41.493Z,17.87
2019-06-07T05:00:04.300Z,17.95
2019-06-07T05:01:59.646Z,18.01
2019-06-07T05:04:31.383Z,18.09
2019-06-07T05:07:00.354Z,18.12
2019-06-07T05:09:30.194Z,18.17
2019-06-07T05:11:59.850Z,18.26
2019-06-07T05:14:32.542Z,18.31
2019-06-07T05:17:00.502Z,18.29
2019-06-07T05:19:30.572Z,18.23
2019-06-07T05:22:04.762Z,18.12
2019-06-07T05:24:35.587Z,18.11
2019-06-07T05:27:03.056Z,18.15
2019-06-07T05:29:34.674Z,18.10
2019-06-07T05:32:03.665Z,18.11
2019-06-07T05:34:34.579Z,18.15
2019-06-07T05:37:11.479Z,18.20
2019-06-07T05:39:38.395Z,18.29
2019-06-07T05:42:06.731Z,18.39
2019-06-07T05:44:36.630Z,18.47
2019-06-07T05:47:07.322Z,18.58
2019-06-07T05:49:40.644Z,18.62
2019-06-07T05:52:08.220Z,18.63
2019-06-07T05:54:39.582Z,18.67
2019-06-07T05:57:08.866Z,18.72
2019-06-07T05:59:41.189Z,18.77
2019-06-07T06:02:22.210Z,18.82
2019-06-07T06:04:45.843Z,18.83
2019-06-07T06:07:11.970Z,18.83
2019-06-07T06:09:43.199Z,18.87
2019-06-07T06:12:12.688Z,18.93
2019-06-07T06:14:44.483Z,18.96
2019-06-07T06:17:13.754Z,19.03
2019-06-07T06:19:47.365Z,19.08
2019-06-07T06:22:14.590Z,19.12
2019-06-07T06:25:28.394Z,19.25
2019-06-07T06:27:55.573Z,19.34
2019-06-07T06:29:50.110Z,19.38
2019-06-07T06:34:53.253Z,19.44
2019-06-07T06:37:20.464Z,19.53
2019-06-07T06:39:50.269Z,19.61
2019-06-07T06:42:19.901Z,19.70
2019-06-07T06:44:53.830Z,19.79
2019-06-07T06:47:20.628Z,19.86
2019-06-07T06:49:54.165Z,19.94
2019-06-07T06:52:21.349Z,19.97
2019-06-07T06:54:59.701Z,20.01
2019-06-07T06:57:21.945Z,20.08
2019-06-07T06:59:52.829Z,20.20
2019-06-07T07:02:22.492Z,20.31
2019-06-07T07:04:53.822Z,20.41
2019-06-07T07:07:23.491Z,20.46
2019-06-07T07:10:12.304Z,20.50
2019-06-07T07:12:42.978Z,20.58
2019-06-07T07:15:19.160Z,20.66
2019-06-07T07:18:00.669Z,20.79
2019-06-07T07:20:19.781Z,20.85
2019-06-07T07:22:53.593Z,20.87
2019-06-07T07:25:20.559Z,20.94
2019-06-07T07:27:53.419Z,21.03
2019-06-07T07:30:50.830Z,21.13
2019-06-07T07:33:19.396Z,21.24
2019-06-07T07:36:10.833Z,21.32
2019-06-07T07:38:19.940Z,21.41
2019-06-07T07:41:07.660Z,21.48
2019-06-07T07:43:20.557Z,21.51
2019-06-07T07:45:54.955Z,21.54
2019-06-07T07:48:21.487Z,21.64
2019-06-07T07:50:54.408Z,21.78
2019-06-07T07:53:22.238Z,21.89
2019-06-07T07:55:54.920Z,21.97
2019-06-07T07:58:23.119Z,22.05
2019-06-07T08:01:00.819Z,22.17
2019-06-07T08:03:23.758Z,22.40
2019-06-07T08:05:57.036Z,22.37
2019-06-07T08:08:24.407Z,22.38
2019-06-07T08:10:56.479Z,22.54
2019-06-07T08:13:27.661Z,22.76
2019-06-07T08:15:59.658Z,22.89
2019-06-07T08:18:27.891Z,22.97
2019-06-07T08:21:17.227Z,22.98
2019-06-07T08:23:28.773Z,23.13
2019-06-07T08:26:01.141Z,23.35
2019-06-07T08:28:29.598Z,23.56
2019-06-07T08:31:06.417Z,23.68
2019-06-07T08:33:30.379Z,23.79
2019-06-07T08:36:19.522Z,23.97
2019-06-07T08:38:47.053Z,24.23
2019-06-07T08:41:11.012Z,24.18
2019-06-07T08:43:33.449Z,24.08
2019-06-07T08:46:07.438Z,24.11
2019-06-07T08:48:34.153Z,24.13
2019-06-07T08:51:08.137Z,24.40
2019-06-07T08:53:34.828Z,24.65
2019-06-07T08:56:09.896Z,24.88
2019-06-07T08:58:35.374Z,24.95
2019-06-07T09:01:08.374Z,25.00
2019-06-07T09:03:35.981Z,25.08
2019-06-07T09:06:16.472Z,25.32
2019-06-07T09:08:36.772Z,25.52
2019-06-07T09:11:10.945Z,25.68
2019-06-07T09:13:37.424Z,25.71
2019-06-07T09:16:09.022Z,25.83
2019-06-07T09:18:43.548Z,25.82
2019-06-07T09:21:09.885Z,25.61
2019-06-07T09:23:39.708Z,25.76
2019-06-07T09:26:17.988Z,26.03
2019-06-07T09:28:40.459Z,26.12
2019-06-07T09:31:12.473Z,26.40
2019-06-07T09:33:41.047Z,26.66
2019-06-07T09:36:13.265Z,26.91
2019-06-07T09:38:41.969Z,27.13
2019-06-07T09:41:11.368Z,27.17
2019-06-07T09:44:20.386Z,27.24
2019-06-07T09:46:15.723Z,27.38
2019-06-07T09:51:20.059Z,28.15
2019-06-07T09:53:45.612Z,28.51
2019-06-07T09:56:15.107Z,28.41
2019-06-07T09:58:53.539Z,28.26
2019-06-07T10:01:15.704Z,28.20
2019-06-07T10:03:45.190Z,28.06
2019-06-07T10:06:14.655Z,28.11
2019-06-07T10:11:16.835Z,28.45
2019-06-07T10:13:46.280Z,28.77
2019-06-07T10:16:15.671Z,29.01
2019-06-07T10:18:45.162Z,29.26
2019-06-07T10:21:15.507Z,29.64
2019-06-07T10:23:45.360Z,29.71
2019-06-07T10:26:14.860Z,29.47
2019-06-07T10:28:44.386Z,29.86
2019-06-07T10:31:13.904Z,30.19
2019-06-07T10:33:43.423Z,30.50
2019-06-07T10:36:12.890Z,30.37
2019-06-07T10:38:42.367Z,30.40
2019-06-07T10:41:11.855Z,30.66
2019-06-07T10:43:41.274Z,30.82
2019-06-07T10:46:12.073Z,30.69
2019-06-07T10:48:41.859Z,30.70
2019-06-07T10:51:14.379Z,30.85
2019-06-07T10:53:42.506Z,30.57
2019-06-07T10:56:13.325Z,30.82
2019-06-07T10:58:42.970Z,30.78
2019-06-07T11:01:13.949Z,31.04
2019-06-07T11:03:43.903Z,31.46
2019-06-07T11:06:14.312Z,31.77
2019-06-07T11:08:43.980Z,32.26
2019-06-07T11:11:14.380Z,32.54
2019-06-07T11:13:44.108Z,32.68
2019-06-07T11:16:15.517Z,33.09
2019-06-07T11:18:44.793Z,33.28
2019-06-07T11:21:14.419Z,33.55
2019-06-07T11:23:44.027Z,33.82
2019-06-07T11:26:14.417Z,33.50
2019-06-07T11:28:44.181Z,33.30
2019-06-07T11:31:14.930Z,33.11
2019-06-07T11:33:44.717Z,33.16
2019-06-07T11:36:15.250Z,33.62
2019-06-07T11:38:44.930Z,34.31
2019-06-07T11:41:15.675Z,34.57
2019-06-07T11:43:45.330Z,34.89
2019-06-07T11:46:15.165Z,35.43
2019-06-07T11:48:44.696Z,35.07
2019-06-07T11:51:14.884Z,34.99
2019-06-07T11:53:44.622Z,35.17
2019-06-07T11:56:14.174Z,34.76
2019-06-07T11:58:43.492Z,34.55
2019-06-07T12:01:14.911Z,34.37
2019-06-07T12:03:44.189Z,33.92
2019-06-07T12:06:14.573Z,33.70
2019-06-07T12:08:44.450Z,33.48
2019-06-07T12:11:14.405Z,33.74
2019-06-07T12:13:44.001Z,34.28
2019-06-07T12:16:14.068Z,35.07
2019-06-07T12:18:44.835Z,35.01
2019-06-07T12:21:15.646Z,34.84
2019-06-07T12:23:45.391Z,34.79
2019-06-07T12:26:14.887Z,35.50
2019-06-07T12:28:44.469Z,35.87
2019-06-07T12:31:15.011Z,36.30
2019-06-07T12:33:44.613Z,36.72
2019-06-07T12:36:14.043Z,36.93
2019-06-07T12:38:43.518Z,36.91
2019-06-07T12:41:14.036Z,36.69
2019-06-07T12:43:43.781Z,36.19
2019-06-07T12:46:15.432Z,36.03
2019-06-07T12:48:44.440Z,36.67
2019-06-07T12:51:15.090Z,36.74
2019-06-07T12:53:44.646Z,36.16
2019-06-07T12:56:15.330Z,36.04
2019-06-07T12:58:45.267Z,36.35
2019-06-07T13:01:15.897Z,36.79
2019-06-07T13:03:45.514Z,37.44
2019-06-07T13:06:15.406Z,38.25
2019-06-07T13:08:44.985Z,38.67
2019-06-07T13:11:21.230Z,39.19
2019-06-07T13:13:45.566Z,40.20
2019-06-07T13:16:16.341Z,40.67
2019-06-07T13:18:46.536Z,41.12
2019-06-07T13:21:16.273Z,41.82
2019-06-07T13:23:45.801Z,43.23
2019-06-07T13:26:16.733Z,44.14
2019-06-07T13:28:46.715Z,43.68
2019-06-07T13:31:16.500Z,43.48
2019-06-07T13:33:46.149Z,44.39
2019-06-07T13:36:16.035Z,44.94
2019-06-07T13:38:45.706Z,44.26
2019-06-07T13:41:30.200Z,43.61
2019-06-07T13:43:46.281Z,44.27
2019-06-07T13:46:16.877Z,43.02
2019-06-07T13:48:46.523Z,43.42
2019-06-07T13:51:18.392Z,43.95
2019-06-07T13:53:47.073Z,44.48
2019-06-07T13:56:17.765Z,44.67
2019-06-07T13:58:47.352Z,45.43
2019-06-07T14:01:16.751Z,46.11
2019-06-07T14:03:46.126Z,46.67
2019-06-07T14:06:15.457Z,47.19
2019-06-07T14:08:44.928Z,46.48
2019-06-07T14:11:14.395Z,46.32
2019-06-07T14:13:44.732Z,46.00
2019-06-07T14:16:14.228Z,44.47
2019-06-07T14:18:43.789Z,43.05
2019-06-07T14:21:13.182Z,43.04
2019-06-07T14:23:49.134Z,43.11
2019-06-07T14:26:13.868Z,42.87
2019-06-07T14:28:43.339Z,42.44
2019-06-07T14:31:12.842Z,41.52
2019-06-07T14:33:42.215Z,40.08
2019-06-07T14:36:11.708Z,39.15
2019-06-07T14:38:41.178Z,38.94
2019-06-07T14:41:10.778Z,38.05
2019-06-07T14:43:40.278Z,37.53
2019-06-07T14:46:09.742Z,36.91
2019-06-07T14:48:39.244Z,36.71
2019-06-07T14:51:08.709Z,36.89
2019-06-07T14:53:38.131Z,37.12
2019-06-07T14:56:07.532Z,37.57
2019-06-07T14:58:42.774Z,37.82
2019-06-07T15:01:08.159Z,37.87
2019-06-07T15:03:39.062Z,37.41
2019-06-07T15:06:08.722Z,36.77
2019-06-07T15:08:39.174Z,36.76
2019-06-07T15:11:08.843Z,36.41
2019-06-07T15:13:39.760Z,35.87
2019-06-07T15:16:09.464Z,35.55
2019-06-07T15:18:38.947Z,35.94
2019-06-07T15:21:08.407Z,36.30
2019-06-07T15:23:39.263Z,36.54
2019-06-07T15:26:08.963Z,36.45
2019-06-07T15:28:38.554Z,35.77
2019-06-07T15:31:08.144Z,35.42
2019-06-07T15:33:38.374Z,35.17
2019-06-07T15:36:08.019Z,35.13
2019-06-07T15:38:39.101Z,34.99
2019-06-07T15:41:08.555Z,34.66
2019-06-07T15:43:39.062Z,34.60
2019-06-07T15:46:08.893Z,34.62
2019-06-07T15:48:38.461Z,34.43
2019-06-07T15:51:07.783Z,34.08
2019-06-07T15:53:42.309Z,33.99
2019-06-07T15:56:08.557Z,34.16
2019-06-07T15:58:39.428Z,34.22
2019-06-07T16:01:09.131Z,34.37
2019-06-07T16:03:39.880Z,34.19
2019-06-07T16:06:09.490Z,33.96
2019-06-07T16:08:38.844Z,34.01
2019-06-07T16:11:08.314Z,34.15
2019-06-07T16:13:38.794Z,34.32
2019-06-07T16:16:08.559Z,34.40
2019-06-07T16:18:39.723Z,34.17
2019-06-07T16:21:09.326Z,34.05
2019-06-07T16:23:39.859Z,34.07
2019-06-07T16:26:09.502Z,33.52
2019-06-07T16:28:38.994Z,33.31
2019-06-07T16:31:08.249Z,33.46
2019-06-07T16:33:38.825Z,33.69
2019-06-07T16:36:08.429Z,33.72
2019-06-07T16:38:38.071Z,33.80
2019-06-07T16:41:07.592Z,33.71
2019-06-07T16:43:38.447Z,33.71
2019-06-07T16:46:07.990Z,33.87
2019-06-07T16:48:38.744Z,33.65
2019-06-07T16:51:08.230Z,33.39
2019-06-07T16:53:38.211Z,33.18
2019-06-07T16:56:07.815Z,32.91
2019-06-07T16:58:37.858Z,32.76
2019-06-07T17:01:07.459Z,32.59
2019-06-07T17:03:37.289Z,32.03
2019-06-07T17:06:06.867Z,31.77
2019-06-07T17:08:37.867Z,31.75
2019-06-07T17:11:07.430Z,31.82
2019-06-07T17:13:38.081Z,31.97
2019-06-07T17:16:07.714Z,32.16
2019-06-07T17:18:37.336Z,32.19
2019-06-07T17:21:07.133Z,32.01
2019-06-07T17:23:36.627Z,31.83
2019-06-07T17:26:06.081Z,31.97
2019-06-07T17:28:35.554Z,32.08
2019-06-07T17:31:04.971Z,32.10
2019-06-07T17:33:34.320Z,31.76
2019-06-07T17:36:03.724Z,31.56
2019-06-07T17:38:33.121Z,31.32
2019-06-07T17:41:02.556Z,31.16
2019-06-07T17:43:32.028Z,31.15
2019-06-07T17:46:01.446Z,31.22
2019-06-07T17:48:30.930Z,31.42
2019-06-07T17:51:00.624Z,31.55
2019-06-07T17:53:30.709Z,31.54
2019-06-07T17:56:00.210Z,31.45
2019-06-07T17:58:29.731Z,31.21
2019-06-07T18:00:59.548Z,31.18
2019-06-07T18:03:28.887Z,30.87
2019-06-07T18:05:58.517Z,30.68
2019-06-07T18:08:27.869Z,30.52
2019-06-07T18:10:57.297Z,30.50
2019-06-07T18:13:26.782Z,30.46
2019-06-07T18:15:59.486Z,30.25
2019-06-07T18:18:27.381Z,29.97
2019-06-07T18:20:56.887Z,29.82
2019-06-07T18:23:26.345Z,29.72
2019-06-07T18:25:55.843Z,29.50
2019-06-07T18:28:25.859Z,29.25
2019-06-07T18:30:55.349Z,28.93
2019-06-07T18:33:24.862Z,28.75
2019-06-07T18:35:55.312Z,28.59
2019-06-07T18:38:25.101Z,28.48
2019-06-07T18:40:55.367Z,28.28
2019-06-07T18:43:25.009Z,28.11
2019-06-07T18:45:55.943Z,27.99
2019-06-07T18:48:25.578Z,27.85
2019-06-07T18:50:55.050Z,27.75
2019-06-07T18:53:24.574Z,27.69
2019-06-07T18:55:54.129Z,27.63
2019-06-07T18:58:23.565Z,27.47
2019-06-07T19:00:53.795Z,27.34
2019-06-07T19:03:23.464Z,27.27
2019-06-07T19:05:54.175Z,27.26
2019-06-07T19:08:23.859Z,27.14
2019-06-07T19:10:53.238Z,27.07
2019-06-07T19:13:22.682Z,27.01
2019-06-07T19:15:53.319Z,27.01
2019-06-07T19:18:22.853Z,26.99
2019-06-07T19:20:52.523Z,27.01
2019-06-07T19:23:22.120Z,26.92
2019-06-07T19:25:52.204Z,26.86
2019-06-07T19:28:21.767Z,26.75
2019-06-07T19:30:51.234Z,26.68
2019-06-07T19:33:20.743Z,26.55
2019-06-07T19:35:51.348Z,26.49
2019-06-07T19:38:21.166Z,26.41
2019-06-07T19:40:51.677Z,26.38
2019-06-07T19:43:21.329Z,26.25
2019-06-07T19:45:52.078Z,26.00
2019-06-07T19:48:22.229Z,25.89
2019-06-07T19:50:52.877Z,25.61
2019-06-07T19:53:23.146Z,25.40
2019-06-07T19:55:53.065Z,25.36
2019-06-07T19:58:23.274Z,25.20
2019-06-07T20:00:53.382Z,25.06
2019-06-07T20:03:23.378Z,25.14
2019-06-07T20:05:54.047Z,25.10
2019-06-07T20:08:23.837Z,25.03
2019-06-07T20:10:54.438Z,24.85
2019-06-07T20:13:24.400Z,24.69
2019-06-07T20:15:54.727Z,24.54
2019-06-07T20:18:27.764Z,24.44
2019-06-07T20:20:56.409Z,24.30
2019-06-07T20:23:26.296Z,24.30
2019-06-07T20:25:56.156Z,24.27
2019-06-07T20:28:26.124Z,24.15
2019-06-07T20:30:55.577Z,23.95
2019-06-07T20:36:30.493Z,23.81
2019-06-07T20:39:00.232Z,23.79
2019-06-07T20:41:29.785Z,23.91
2019-06-07T20:43:59.730Z,23.82
2019-06-07T20:46:29.274Z,23.60
2019-06-07T20:49:00.335Z,23.45
2019-06-07T20:51:29.847Z,23.35
2019-06-07T20:54:00.381Z,23.27
2019-06-07T20:56:30.093Z,23.31
2019-06-07T20:59:00.477Z,23.26
2019-06-07T21:01:30.016Z,23.24
2019-06-07T21:03:59.409Z,23.14
2019-06-07T21:06:28.840Z,23.02
2019-06-07T21:08:59.336Z,22.86
2019-06-07T21:11:28.915Z,22.82
2019-06-07T21:13:59.906Z,22.73
2019-06-07T21:16:29.427Z,22.72
2019-06-07T21:19:00.030Z,22.66
2019-06-07T21:21:29.707Z,22.62
2019-06-07T21:24:00.419Z,22.58
2019-06-07T21:26:29.970Z,22.39
2019-06-07T21:29:01.045Z,22.33
2019-06-07T21:31:30.594Z,22.32
2019-06-07T21:34:01.270Z,22.29
2019-06-07T21:36:30.935Z,22.22
2019-06-07T21:39:00.395Z,22.24
2019-06-07T21:41:29.898Z,22.17
2019-06-07T21:43:59.373Z,22.19
2019-06-07T21:46:28.728Z,22.11
2019-06-07T21:48:58.187Z,22.07
2019-06-07T21:51:27.677Z,21.95
2019-06-07T21:53:57.008Z,21.92
2019-06-07T21:56:26.476Z,21.92
2019-06-07T21:58:55.966Z,21.83
2019-06-07T22:01:25.976Z,21.89
2019-06-07T22:03:55.456Z,21.92
2019-06-07T22:06:25.067Z,21.82
2019-06-07T22:08:54.531Z,21.76
2019-06-07T22:11:24.031Z,21.71
2019-06-07T22:13:53.425Z,21.65
2019-06-07T22:16:28.913Z,21.60
2019-06-07T22:18:54.167Z,21.56
2019-06-07T22:21:23.895Z,21.49
2019-06-07T22:23:53.372Z,21.48
2019-06-07T22:26:22.808Z,21.42
2019-06-07T22:28:52.262Z,21.30
2019-06-07T22:31:21.666Z,21.29
2019-06-07T22:33:51.168Z,21.28
2019-06-07T22:36:20.633Z,21.24
2019-06-07T22:38:50.137Z,21.09
2019-06-07T22:41:19.546Z,21.09
2019-06-07T22:43:49.017Z,21.02
2019-06-07T22:46:19.287Z,21.03
2019-06-07T22:48:48.939Z,20.98
2019-06-07T22:51:18.491Z,20.98
2019-06-07T22:53:48.030Z,21.00
2019-06-07T22:56:19.087Z,21.08
2019-06-07T22:58:48.596Z,20.97
2019-06-07T23:01:20.084Z,20.87
2019-06-07T23:03:49.289Z,20.83
2019-06-07T23:06:19.040Z,20.81
2019-06-07T23:08:48.640Z,20.79
2019-06-07T23:11:19.424Z,20.69
2019-06-07T23:13:49.139Z,20.76
2019-06-07T23:16:19.823Z,20.70
2019-06-07T23:18:49.478Z,20.65
2019-06-07T23:21:20.131Z,20.71
2019-06-07T23:23:49.960Z,20.64
2019-06-07T23:26:20.594Z,20.63
2019-06-07T23:28:50.322Z,20.62
2019-06-07T23:31:20.811Z,20.67
2019-06-07T23:33:50.618Z,20.60
2019-06-07T23:36:21.339Z,20.45
2019-06-07T23:38:50.927Z,20.38
2019-06-07T23:41:22.183Z,20.34
2019-06-07T23:43:51.890Z,20.34
2019-06-07T23:46:21.717Z,20.31
2019-06-07T23:48:51.291Z,20.32
2019-06-07T23:51:21.994Z,20.25
2019-06-07T23:53:51.585Z,20.18
2019-06-07T23:56:22.288Z,20.17
2019-06-07T23:58:51.965Z,20.18
